createdAt,value
2019-02-27T00:00:31.207Z,89.00
2019-02-27T00:03:19.515Z,90.00
2019-02-27T00:06:04.975Z,90.70
2019-02-27T00:08:50.092Z,90.80
2019-02-27T00:11:35.449Z,91.50
2019-02-27T00:14:20.553Z,91.70
2019-02-27T00:17:05.457Z,91.40
2019-02-27T00:19:50.876Z,92.30
2019-02-27T00:22:36.150Z,91.30
2019-02-27T00:25:21.321Z,91.60
2019-02-27T00:28:06.187Z,91.60
2019-02-27T00:30:51.173Z,91.60
2019-02-27T00:33:36.365Z,92.30
2019-02-27T00:36:21.563Z,92.10
2019-02-27T00:39:07.351Z,92.10
2019-02-27T00:41:52.490Z,92.00
2019-02-27T00:44:37.439Z,92.30
2019-02-27T00:47:22.224Z,92.20
2019-02-27T00:50:08.384Z,92.10
2019-02-27T00:52:54.699Z,92.00
2019-02-27T00:55:39.590Z,92.00
2019-02-27T00:58:26.823Z,93.20
2019-02-27T01:01:12.780Z,91.70
2019-02-27T01:04:00.974Z,92.20
2019-02-27T01:06:47.608Z,92.50
2019-02-27T01:09:32.072Z,91.80
2019-02-27T01:12:17.481Z,91.50
2019-02-27T01:15:07.931Z,91.50
2019-02-27T01:17:55.066Z,91.60
2019-02-27T01:20:45.510Z,92.10
2019-02-27T01:23:27.353Z,92.10
2019-02-27T01:26:12.050Z,92.90
2019-02-27T01:28:56.802Z,93.30
2019-02-27T01:31:41.890Z,93.00
2019-02-27T01:34:27.019Z,92.00
2019-02-27T01:37:13.260Z,92.70
2019-02-27T01:39:58.166Z,93.00
2019-02-27T01:42:43.062Z,92.10
2019-02-27T01:45:29.241Z,91.40
2019-02-27T01:48:14.130Z,91.30
2019-02-27T01:50:59.534Z,91.40
2019-02-27T01:53:44.591Z,92.20
2019-02-27T01:56:29.713Z,92.00
2019-02-27T01:59:16.909Z,91.80
2019-02-27T02:02:03.501Z,92.10
2019-02-27T02:04:53.044Z,92.70
2019-02-27T02:07:35.352Z,91.90
2019-02-27T02:10:20.640Z,92.00
2019-02-27T02:13:15.287Z,92.50
2019-02-27T02:16:19.814Z,92.30
2019-02-27T02:19:24.063Z,91.20
2019-02-27T02:22:15.539Z,91.90
2019-02-27T02:25:31.309Z,92.10
2019-02-27T02:28:26.086Z,91.80
2019-02-27T02:31:30.112Z,92.30
2019-02-27T02:34:24.654Z,92.80
2019-02-27T02:37:16.465Z,93.30
2019-02-27T02:40:31.234Z,93.40
2019-02-27T02:43:40.150Z,93.30
2019-02-27T02:46:30.317Z,93.30
2019-02-27T02:49:27.892Z,93.70
2019-02-27T02:52:25.809Z,92.50
2019-02-27T02:55:14.599Z,92.80
2019-02-27T02:58:07.903Z,93.20
2019-02-27T03:01:02.905Z,93.90
2019-02-27T03:04:00.808Z,94.50
2019-02-27T03:06:52.655Z,94.60
2019-02-27T03:09:59.664Z,94.70
2019-02-27T03:13:07.091Z,94.70
2019-02-27T03:16:07.145Z,94.10
2019-02-27T03:18:55.589Z,93.40
2019-02-27T03:21:52.895Z,93.40
2019-02-27T03:24:56.905Z,93.50
2019-02-27T03:28:19.616Z,93.40
2019-02-27T03:31:18.058Z,93.70
2019-02-27T03:34:13.645Z,93.70
2019-02-27T03:37:05.642Z,93.80
2019-02-27T03:40:10.677Z,93.80
2019-02-27T03:43:10.442Z,94.10
2019-02-27T03:46:06.215Z,94.20
2019-02-27T03:49:03.713Z,93.60
2019-02-27T03:52:00.636Z,94.20
2019-02-27T03:55:24.651Z,94.40
2019-02-27T03:58:30.574Z,93.80
2019-02-27T04:01:30.068Z,94.30
2019-02-27T04:04:30.936Z,94.50
2019-02-27T04:07:31.469Z,94.50
2019-02-27T04:10:12.702Z,93.90
2019-02-27T04:12:57.990Z,94.20
2019-02-27T04:15:43.168Z,94.20
2019-02-27T04:18:28.620Z,94.70
2019-02-27T04:21:13.964Z,94.50
2019-02-27T04:23:58.894Z,94.60
2019-02-27T04:26:43.759Z,95.20
2019-02-27T04:29:28.714Z,95.70
2019-02-27T04:32:13.769Z,96.10
2019-02-27T04:34:58.658Z,96.30
2019-02-27T04:37:44.039Z,96.30
2019-02-27T04:40:29.037Z,95.80
2019-02-27T04:43:14.038Z,96.00
2019-02-27T04:45:59.367Z,96.00
2019-02-27T04:48:44.209Z,95.60
2019-02-27T04:51:29.095Z,95.70
2019-02-27T04:54:13.839Z,95.00
2019-02-27T04:56:58.759Z,94.60
2019-02-27T04:59:43.479Z,94.70
2019-02-27T05:02:28.174Z,94.50
2019-02-27T05:05:13.027Z,94.50
2019-02-27T05:07:57.783Z,94.70
2019-02-27T05:10:42.725Z,94.00
2019-02-27T05:13:27.443Z,93.70
2019-02-27T05:16:14.119Z,93.70
2019-02-27T05:19:03.537Z,93.80
2019-02-27T05:21:46.137Z,93.60
2019-02-27T05:24:31.437Z,93.50
2019-02-27T05:27:16.301Z,93.70
2019-02-27T05:30:01.392Z,93.80
2019-02-27T05:32:46.477Z,93.80
2019-02-27T05:35:31.323Z,93.70
2019-02-27T05:38:16.140Z,93.90
2019-02-27T05:41:00.938Z,94.30
2019-02-27T05:43:48.484Z,94.10
2019-02-27T05:46:35.742Z,94.10
2019-02-27T05:49:20.330Z,94.00
2019-02-27T05:52:05.326Z,94.20
2019-02-27T05:54:50.023Z,94.70
2019-02-27T05:57:34.948Z,94.10
2019-02-27T06:00:20.489Z,93.50
2019-02-27T06:03:07.313Z,93.60
2019-02-27T06:05:53.471Z,93.20
2019-02-27T06:08:38.333Z,93.60
2019-02-27T06:11:23.540Z,93.80
2019-02-27T06:14:08.236Z,93.80
2019-02-27T06:16:53.400Z,93.50
2019-02-27T06:19:38.505Z,93.00
2019-02-27T06:22:23.276Z,92.70
2019-02-27T06:25:13.504Z,93.50
2019-02-27T06:27:58.394Z,94.40
2019-02-27T06:30:43.719Z,94.60
2019-02-27T06:33:28.763Z,94.50
2019-02-27T06:36:13.642Z,94.90
2019-02-27T06:39:00.307Z,95.40
2019-02-27T06:41:47.376Z,95.50
2019-02-27T06:44:32.427Z,95.90
2019-02-27T06:47:17.308Z,96.70
2019-02-27T06:50:04.225Z,97.00
2019-02-27T06:52:49.165Z,97.50
2019-02-27T06:55:33.979Z,97.70
2019-02-27T06:58:19.113Z,97.80
2019-02-27T07:01:03.912Z,97.70
2019-02-27T07:03:48.882Z,97.80
2019-02-27T07:06:33.786Z,97.60
2019-02-27T07:09:19.873Z,97.60
2019-02-27T07:12:07.111Z,97.90
2019-02-27T07:14:51.758Z,97.90
2019-02-27T07:17:36.705Z,97.60
2019-02-27T07:20:24.426Z,97.50
2019-02-27T07:23:08.400Z,97.40
2019-02-27T07:25:53.548Z,97.50
2019-02-27T07:28:43.217Z,97.50
2019-02-27T07:31:25.620Z,97.50
2019-02-27T07:34:14.204Z,97.50
2019-02-27T07:36:57.489Z,97.70
2019-02-27T07:39:43.107Z,97.40
2019-02-27T07:42:31.988Z,97.20
2019-02-27T07:45:22.837Z,96.80
2019-02-27T07:48:08.017Z,96.40
2019-02-27T07:50:53.027Z,95.10
2019-02-27T07:53:39.003Z,93.60
2019-02-27T07:56:25.359Z,91.90
2019-02-27T07:59:10.587Z,89.60
2019-02-27T08:01:55.704Z,86.30
2019-02-27T08:04:41.169Z,82.00
2019-02-27T08:07:26.167Z,80.40
2019-02-27T08:10:19.747Z,79.40
2019-02-27T08:13:04.658Z,78.30
2019-02-27T08:15:49.626Z,74.30
2019-02-27T08:18:37.727Z,70.70
2019-02-27T08:21:22.017Z,70.90
2019-02-27T08:24:07.680Z,69.50
2019-02-27T08:26:52.728Z,67.90
2019-02-27T08:29:37.890Z,66.30
2019-02-27T08:32:23.366Z,65.50
2019-02-27T08:35:09.165Z,64.10
2019-02-27T08:38:02.251Z,63.10
2019-02-27T08:40:42.557Z,62.30
2019-02-27T08:43:30.543Z,61.20
2019-02-27T08:46:15.844Z,60.40
2019-02-27T08:49:00.796Z,60.00
2019-02-27T08:51:46.198Z,59.40
2019-02-27T08:54:33.037Z,60.20
2019-02-27T08:57:18.483Z,59.20
2019-02-27T09:00:07.092Z,58.30
2019-02-27T09:02:52.466Z,57.30
2019-02-27T09:05:37.720Z,56.80
2019-02-27T09:08:22.999Z,55.50
2019-02-27T09:11:08.416Z,55.10
2019-02-27T09:13:53.662Z,54.60
2019-02-27T09:16:39.316Z,53.90
2019-02-27T09:19:24.547Z,53.40
2019-02-27T09:22:09.343Z,52.70
2019-02-27T09:24:54.313Z,52.50
2019-02-27T09:27:39.099Z,52.30
2019-02-27T09:30:28.763Z,52.40
2019-02-27T09:33:11.798Z,52.30
2019-02-27T09:35:56.456Z,51.40
2019-02-27T09:38:41.352Z,50.40
2019-02-27T09:41:26.734Z,51.00
2019-02-27T09:44:11.782Z,50.40
2019-02-27T09:46:57.024Z,48.70
2019-02-27T09:49:41.931Z,48.80
2019-02-27T09:52:27.819Z,46.90
2019-02-27T09:55:14.086Z,46.40
2019-02-27T09:57:59.348Z,46.10
2019-02-27T10:01:02.911Z,46.40
2019-02-27T10:03:46.775Z,45.40
2019-02-27T10:06:31.847Z,45.00
2019-02-27T10:09:17.311Z,44.20
2019-02-27T10:12:02.419Z,43.90
2019-02-27T10:14:47.963Z,44.50
2019-02-27T10:17:34.322Z,43.20
2019-02-27T10:20:19.381Z,43.40
2019-02-27T10:23:05.521Z,41.70
2019-02-27T10:25:50.551Z,40.90
2019-02-27T10:28:39.121Z,39.10
2019-02-27T10:31:22.628Z,38.00
2019-02-27T10:34:08.424Z,38.90
2019-02-27T10:36:53.393Z,39.20
2019-02-27T10:39:38.760Z,40.00
2019-02-27T10:42:23.644Z,38.80
2019-02-27T10:45:10.717Z,37.30
2019-02-27T10:47:56.043Z,36.90
2019-02-27T10:50:41.108Z,36.60
2019-02-27T10:53:27.473Z,37.40
2019-02-27T10:56:12.708Z,37.60
2019-02-27T10:58:57.641Z,38.90
2019-02-27T11:01:42.833Z,39.20
2019-02-27T11:04:27.800Z,38.80
2019-02-27T11:07:15.791Z,37.40
2019-02-27T11:10:00.551Z,36.00
2019-02-27T11:12:46.151Z,36.30
2019-02-27T11:15:30.973Z,35.80
2019-02-27T11:18:15.907Z,36.00
2019-02-27T11:21:00.856Z,35.70
2019-02-27T11:23:46.042Z,36.10
2019-02-27T11:26:33.229Z,36.40
2019-02-27T11:29:17.681Z,36.10
2019-02-27T11:32:03.187Z,35.30
2019-02-27T11:34:48.448Z,35.70
2019-02-27T11:37:34.410Z,34.80
2019-02-27T11:40:23.608Z,35.30
2019-02-27T11:43:08.717Z,34.70
2019-02-27T11:45:57.515Z,34.00
2019-02-27T11:48:40.675Z,33.60
2019-02-27T11:51:25.487Z,34.30
2019-02-27T11:54:10.263Z,35.50
2019-02-27T11:56:56.924Z,34.60
2019-02-27T11:59:46.552Z,34.20
2019-02-27T12:02:31.203Z,33.70
2019-02-27T12:05:15.939Z,34.00
2019-02-27T12:08:01.481Z,33.80
2019-02-27T12:10:46.558Z,33.20
2019-02-27T12:13:32.357Z,32.40
2019-02-27T12:16:18.611Z,33.20
2019-02-27T12:19:06.423Z,32.80
2019-02-27T12:21:51.343Z,31.50
2019-02-27T12:24:36.577Z,32.20
2019-02-27T12:27:47.373Z,31.20
2019-02-27T12:30:11.392Z,31.10
2019-02-27T12:32:57.180Z,32.30
2019-02-27T12:35:44.920Z,30.50
2019-02-27T12:38:29.841Z,29.60
2019-02-27T12:41:14.961Z,28.50
2019-02-27T12:44:02.578Z,28.40
2019-02-27T12:46:47.214Z,28.60
2019-02-27T12:49:32.006Z,29.30
2019-02-27T12:52:17.359Z,29.60
2019-02-27T12:55:04.520Z,29.60
2019-02-27T12:57:52.485Z,28.70
2019-02-27T13:00:39.982Z,28.90
2019-02-27T13:03:24.616Z,28.60
2019-02-27T13:06:09.714Z,28.40
2019-02-27T13:08:56.237Z,28.70
2019-02-27T13:11:41.644Z,28.80
2019-02-27T13:14:28.282Z,28.90
2019-02-27T13:17:13.324Z,29.00
2019-02-27T13:19:58.611Z,29.50
2019-02-27T13:22:43.282Z,28.90
2019-02-27T13:25:30.170Z,29.10
2019-02-27T13:28:15.708Z,29.60
2019-02-27T13:31:01.065Z,29.30
2019-02-27T13:33:47.453Z,28.80
2019-02-27T13:36:34.175Z,29.90
2019-02-27T13:39:19.068Z,30.40
2019-02-27T13:42:04.190Z,30.90
2019-02-27T13:44:49.256Z,30.10
2019-02-27T13:47:34.091Z,28.70
2019-02-27T13:50:22.157Z,29.30
2019-02-27T13:53:06.881Z,28.50
2019-02-27T13:55:52.994Z,27.90
2019-02-27T13:58:37.802Z,28.30
2019-02-27T14:01:25.084Z,28.10
2019-02-27T14:04:09.244Z,27.70
2019-02-27T14:06:54.302Z,30.00
2019-02-27T14:09:41.524Z,29.40
2019-02-27T14:12:27.046Z,29.70
2019-02-27T14:15:14.677Z,30.50
2019-02-27T14:18:00.123Z,29.30
2019-02-27T14:20:45.373Z,29.20
2019-02-27T14:23:30.542Z,29.20
2019-02-27T14:26:15.601Z,28.00
2019-02-27T14:29:00.481Z,28.50
2019-02-27T14:31:45.307Z,28.60
2019-02-27T14:34:30.666Z,29.80
2019-02-27T14:37:16.525Z,28.40
2019-02-27T14:40:05.426Z,29.80
2019-02-27T14:42:53.953Z,27.80
2019-02-27T14:45:40.658Z,29.20
2019-02-27T14:48:26.002Z,29.40
2019-02-27T14:51:11.243Z,28.00
2019-02-27T14:53:56.552Z,28.40
2019-02-27T14:56:41.899Z,27.90
2019-02-27T14:59:30.605Z,28.80
2019-02-27T15:02:15.948Z,30.00
2019-02-27T15:05:06.215Z,28.00
2019-02-27T15:07:49.836Z,29.20
2019-02-27T15:10:40.066Z,28.50
2019-02-27T15:13:22.206Z,28.70
2019-02-27T15:16:08.192Z,29.00
2019-02-27T15:18:55.831Z,28.50
2019-02-27T15:21:43.911Z,28.00
2019-02-27T15:24:28.342Z,29.90
2019-02-27T15:27:13.011Z,29.10
2019-02-27T15:29:57.982Z,28.50
2019-02-27T15:32:43.382Z,28.70
2019-02-27T15:35:29.008Z,27.80
2019-02-27T15:38:14.245Z,29.00
2019-02-27T15:41:02.339Z,28.90
2019-02-27T15:43:54.683Z,27.80
2019-02-27T15:46:33.247Z,27.80
2019-02-27T15:49:18.826Z,28.30
2019-02-27T15:52:06.985Z,29.50
2019-02-27T15:54:50.651Z,30.00
2019-02-27T15:57:35.538Z,29.80
2019-02-27T16:00:24.777Z,30.60
2019-02-27T16:03:11.738Z,32.80
2019-02-27T16:05:56.790Z,33.30
2019-02-27T16:08:42.107Z,34.30
2019-02-27T16:11:26.774Z,33.40
2019-02-27T16:14:11.707Z,34.80
2019-02-27T16:16:57.570Z,36.00
2019-02-27T16:19:44.702Z,35.10
2019-02-27T16:22:31.703Z,36.50
2019-02-27T16:25:24.251Z,37.50
2019-02-27T16:28:12.172Z,37.00
2019-02-27T16:30:56.222Z,38.10
2019-02-27T16:33:41.647Z,39.50
2019-02-27T16:36:35.730Z,39.90
2019-02-27T16:39:13.548Z,41.40
2019-02-27T16:42:00.816Z,42.40
2019-02-27T16:44:45.446Z,43.50
2019-02-27T16:47:32.826Z,44.10
2019-02-27T16:50:23.894Z,44.80
2019-02-27T16:53:07.456Z,45.40
2019-02-27T16:55:52.735Z,46.10
2019-02-27T16:58:37.651Z,45.50
2019-02-27T17:01:26.298Z,46.30
2019-02-27T17:04:11.449Z,47.00
2019-02-27T17:06:57.787Z,46.60
2019-02-27T17:09:43.864Z,46.70
2019-02-27T17:12:30.011Z,47.10
2019-02-27T17:15:17.687Z,50.00
2019-02-27T17:18:02.832Z,49.30
2019-02-27T17:20:47.809Z,50.00
2019-02-27T17:23:33.068Z,51.70
2019-02-27T17:26:18.197Z,52.70
2019-02-27T17:29:03.497Z,51.40
2019-02-27T17:31:55.428Z,51.60
2019-02-27T17:34:37.182Z,52.20
2019-02-27T17:37:22.678Z,53.30
2019-02-27T17:40:12.553Z,54.00
2019-02-27T17:42:57.468Z,54.40
2019-02-27T17:45:44.339Z,53.10
2019-02-27T17:48:29.413Z,53.10
2019-02-27T17:51:17.945Z,53.50
2019-02-27T17:54:03.165Z,54.20
2019-02-27T17:56:49.965Z,54.50
2019-02-27T17:59:35.947Z,54.10
2019-02-27T18:02:22.370Z,54.50
2019-02-27T18:05:08.641Z,54.50
2019-02-27T18:07:53.587Z,55.00
2019-02-27T18:10:38.519Z,56.00
2019-02-27T18:13:25.250Z,57.20
2019-02-27T18:16:29.935Z,58.60
2019-02-27T18:19:35.993Z,58.50
2019-02-27T18:22:35.206Z,58.70
2019-02-27T18:25:34.643Z,57.50
2019-02-27T18:28:34.624Z,57.40
2019-02-27T18:31:33.798Z,58.20
2019-02-27T18:34:33.184Z,57.50
2019-02-27T18:37:32.822Z,58.40
2019-02-27T18:40:35.120Z,59.60
2019-02-27T18:43:34.246Z,60.70
2019-02-27T18:46:33.411Z,60.90
2019-02-27T18:49:33.540Z,61.80
2019-02-27T18:52:33.670Z,61.60
2019-02-27T18:55:33.671Z,62.70
2019-02-27T18:58:33.565Z,64.10
2019-02-27T19:01:33.106Z,64.20
2019-02-27T19:04:35.216Z,63.60
2019-02-27T19:07:34.962Z,64.10
2019-02-27T19:10:34.627Z,64.70
2019-02-27T19:13:34.428Z,64.80
2019-02-27T19:16:33.958Z,65.10
2019-02-27T19:19:33.972Z,65.80
2019-02-27T19:22:33.880Z,66.20
2019-02-27T19:25:34.743Z,66.00
2019-02-27T19:28:34.938Z,66.60
2019-02-27T19:31:34.815Z,67.20
2019-02-27T19:34:35.379Z,67.40
2019-02-27T19:37:36.329Z,68.70
2019-02-27T19:40:36.875Z,67.90
2019-02-27T19:43:36.875Z,67.30
2019-02-27T19:46:37.067Z,67.40
2019-02-27T19:49:37.355Z,68.10
2019-02-27T19:52:37.325Z,69.50
2019-02-27T19:55:36.849Z,69.80
2019-02-27T19:58:36.655Z,70.00
2019-02-27T20:01:36.805Z,69.60
2019-02-27T20:04:36.926Z,69.70
2019-02-27T20:07:36.643Z,70.30
2019-02-27T20:10:36.816Z,71.30
2019-02-27T20:13:36.910Z,71.50
2019-02-27T20:16:37.027Z,72.00
2019-02-27T20:19:36.941Z,72.20
2019-02-27T20:22:36.855Z,73.70
2019-02-27T20:25:36.950Z,74.60
2019-02-27T20:28:37.181Z,74.40
2019-02-27T20:31:37.390Z,75.50
2019-02-27T20:34:37.390Z,76.20
2019-02-27T20:37:40.385Z,76.70
2019-02-27T20:40:38.991Z,78.20
2019-02-27T20:43:38.528Z,78.70
2019-02-27T20:46:37.810Z,79.30
2019-02-27T20:49:37.414Z,79.80
2019-02-27T20:52:37.917Z,80.60
2019-02-27T20:55:37.978Z,80.60
2019-02-27T20:58:38.262Z,82.30
2019-02-27T21:01:38.179Z,82.40
2019-02-27T21:04:39.172Z,83.50
2019-02-27T21:07:39.096Z,84.90
2019-02-27T21:10:39.251Z,85.60
2019-02-27T21:13:38.619Z,86.90
2019-02-27T21:16:40.147Z,87.30
2019-02-27T21:19:40.266Z,86.90
2019-02-27T21:22:39.582Z,86.90
2019-02-27T21:25:39.241Z,87.80
2019-02-27T21:28:38.947Z,87.80
2019-02-27T21:31:39.205Z,87.80
2019-02-27T21:34:39.455Z,88.80
2019-02-27T21:37:44.496Z,89.40
2019-02-27T21:40:41.239Z,89.80
2019-02-27T21:43:40.427Z,90.20
2019-02-27T21:46:40.334Z,90.50
2019-02-27T21:49:40.189Z,90.90
2019-02-27T21:52:40.208Z,91.60
2019-02-27T21:55:39.657Z,92.10
2019-02-27T21:58:39.982Z,92.00
2019-02-27T22:01:40.825Z,92.20
2019-02-27T22:04:41.206Z,92.30
2019-02-27T22:07:42.292Z,92.30
2019-02-27T22:10:41.794Z,92.60
2019-02-27T22:13:42.222Z,92.90
2019-02-27T22:16:43.678Z,93.30
2019-02-27T22:19:42.956Z,93.10
2019-02-27T22:22:42.490Z,93.00
2019-02-27T22:25:42.644Z,93.50
2019-02-27T22:28:42.969Z,93.80
2019-02-27T22:31:43.137Z,93.90
2019-02-27T22:34:43.476Z,94.30
2019-02-27T22:37:43.639Z,94.30
2019-02-27T22:40:43.847Z,94.30
2019-02-27T22:43:44.141Z,94.80
2019-02-27T22:46:44.301Z,95.20
2019-02-27T22:49:44.614Z,95.60
2019-02-27T22:52:44.860Z,95.50
2019-02-27T22:55:45.255Z,95.40
2019-02-27T22:58:45.461Z,95.20
2019-02-27T23:01:49.417Z,95.60
2019-02-27T23:04:46.969Z,95.40
2019-02-27T23:07:48.159Z,95.90
2019-02-27T23:10:48.215Z,96.60
2019-02-27T23:13:48.256Z,97.10
2019-02-27T23:16:48.553Z,96.60
2019-02-27T23:19:47.774Z,97.00
2019-02-27T23:22:47.336Z,97.00
2019-02-27T23:25:47.416Z,96.90
2019-02-27T23:28:47.425Z,97.50
2019-02-27T23:31:47.679Z,97.80
2019-02-27T23:34:47.819Z,98.00
2019-02-27T23:37:48.211Z,98.30
2019-02-27T23:40:49.034Z,98.30
2019-02-27T23:43:49.784Z,98.30
2019-02-27T23:46:51.736Z,98.90
2019-02-27T23:49:50.326Z,99.20
2019-02-27T23:52:49.752Z,99.40
2019-02-27T23:55:49.559Z,99.10
2019-02-27T23:58:49.820Z,99.40
